sensor_id;sensor_type;location;lat;lon;timestamp;P1;durP1;ratioP1;P2;durP2;ratioP2
32788;SDS011;19141;48.980;8.410;2023-04-25T04:22:32;4.30;;;2.53;;
32788;SDS011;19141;48.980;8.410;2023-04-25T04:25:04;6.28;;;2.88;;
32788;SDS011;19141;48.980;8.410;2023-04-25T04:27:51;4.38;;;3.08;;
32788;SDS011;19141;48.980;8.410;2023-04-25T04:30:43;5.65;;;2.58;;
32788;SDS011;19141;48.980;8.410;2023-04-25T04:33:11;5.97;;;3.00;;
32788;SDS011;19141;48.980;8.410;2023-04-25T04:35:40;3.72;;;2.70;;
32788;SDS011;19141;48.980;8.410;2023-04-25T04:38:07;4.13;;;2.90;;
32788;SDS011;19141;48.980;8.410;2023-04-25T04:40:34;6.45;;;3.28;;
32788;SDS011;19141;48.980;8.410;2023-04-25T04:43:09;4.28;;;2.65;;
32788;SDS011;19141;48.980;8.410;2023-04-25T04:45:55;4.45;;;2.92;;
32788;SDS011;19141;48.980;8.410;2023-04-25T04:48:50;4.32;;;2.85;;
32788;SDS011;19141;48.980;8.410;2023-04-25T04:51:29;4.93;;;2.72;;
32788;SDS011;19141;48.980;8.410;2023-04-25T04:54:06;3.80;;;2.58;;
32788;SDS011;19141;48.980;8.410;2023-04-25T04:56:58;3.42;;;2.92;;
32788;SDS011;19141;48.980;8.410;2023-04-25T04:59:46;5.00;;;3.08;;
32788;SDS011;19141;48.980;8.410;2023-04-25T05:02:47;3.83;;;2.85;;
32788;SDS011;19141;48.980;8.410;2023-04-25T05:05:37;4.93;;;2.90;;
32788;SDS011;19141;48.980;8.410;2023-04-25T05:08:29;7.72;;;2.88;;
32788;SDS011;19141;48.980;8.410;2023-04-25T05:11:13;5.50;;;3.15;;
32788;SDS011;19141;48.980;8.410;2023-04-25T05:13:54;3.78;;;2.55;;
32788;SDS011;19141;48.980;8.410;2023-04-25T05:16:39;5.88;;;2.90;;
32788;SDS011;19141;48.980;8.410;2023-04-25T05:19:23;4.35;;;3.08;;
32788;SDS011;19141;48.980;8.410;2023-04-25T05:22:07;7.07;;;3.35;;
32788;SDS011;19141;48.980;8.410;2023-04-25T05:24:52;5.28;;;3.15;;
32788;SDS011;19141;48.980;8.410;2023-04-25T05:27:48;6.57;;;3.58;;
32788;SDS011;19141;48.980;8.410;2023-04-25T05:30:34;7.03;;;3.20;;
32788;SDS011;19141;48.980;8.410;2023-04-25T05:33:07;6.80;;;3.58;;
32788;SDS011;19141;48.980;8.410;2023-04-25T05:35:33;4.80;;;2.75;;
32788;SDS011;19141;48.980;8.410;2023-04-25T05:37:59;6.00;;;3.30;;
32788;SDS011;19141;48.980;8.410;2023-04-25T05:40:44;5.53;;;3.65;;
32788;SDS011;19141;48.980;8.410;2023-04-25T05:43:15;6.38;;;3.22;;
32788;SDS011;19141;48.980;8.410;2023-04-25T05:45:50;4.95;;;3.22;;
32788;SDS011;19141;48.980;8.410;2023-04-25T05:48:35;4.65;;;3.10;;
32788;SDS011;19141;48.980;8.410;2023-04-25T05:51:24;5.70;;;3.47;;
32788;SDS011;19141;48.980;8.410;2023-04-25T05:54:04;4.60;;;3.03;;
32788;SDS011;19141;48.980;8.410;2023-04-25T05:56:30;5.10;;;3.08;;
32788;SDS011;19141;48.980;8.410;2023-04-25T05:58:56;4.32;;;2.80;;
32788;SDS011;19141;48.980;8.410;2023-04-25T06:01:22;4.75;;;3.00;;
32788;SDS011;19141;48.980;8.410;2023-04-25T06:03:48;6.15;;;3.25;;
32788;SDS011;19141;48.980;8.410;2023-04-25T06:06:16;5.40;;;2.90;;
32788;SDS011;19141;48.980;8.410;2023-04-25T06:08:42;5.18;;;2.65;;
32788;SDS011;19141;48.980;8.410;2023-04-25T06:13:35;6.55;;;3.03;;
32788;SDS011;19141;48.980;8.410;2023-04-25T06:16:01;4.82;;;2.40;;
32788;SDS011;19141;48.980;8.410;2023-04-25T06:18:26;5.00;;;2.63;;
32788;SDS011;19141;48.980;8.410;2023-04-25T06:20:52;3.95;;;2.47;;
32788;SDS011;19141;48.980;8.410;2023-04-25T06:23:17;4.07;;;2.75;;
32788;SDS011;19141;48.980;8.410;2023-04-25T06:25:52;4.78;;;2.63;;
32788;SDS011;19141;48.980;8.410;2023-04-25T06:28:18;4.50;;;2.72;;
32788;SDS011;19141;48.980;8.410;2023-04-25T06:30:44;4.55;;;3.33;;
32788;SDS011;19141;48.980;8.410;2023-04-25T06:33:13;4.78;;;2.58;;
32788;SDS011;19141;48.980;8.410;2023-04-25T06:35:39;4.10;;;2.88;;
32788;SDS011;19141;48.980;8.410;2023-04-25T06:38:08;5.50;;;3.33;;
32788;SDS011;19141;48.980;8.410;2023-04-25T06:40:35;5.40;;;2.88;;
32788;SDS011;19141;48.980;8.410;2023-04-25T06:43:01;6.03;;;3.13;;
32788;SDS011;19141;48.980;8.410;2023-04-25T06:45:56;5.05;;;3.08;;
32788;SDS011;19141;48.980;8.410;2023-04-25T06:48:24;4.32;;;2.80;;
32788;SDS011;19141;48.980;8.410;2023-04-25T06:50:51;5.30;;;3.28;;
32788;SDS011;19141;48.980;8.410;2023-04-25T06:53:17;5.47;;;3.08;;
32788;SDS011;19141;48.980;8.410;2023-04-25T06:55:46;8.25;;;3.97;;
32788;SDS011;19141;48.980;8.410;2023-04-25T06:58:17;6.85;;;3.42;;
32788;SDS011;19141;48.980;8.410;2023-04-25T07:01:12;3.97;;;3.05;;
32788;SDS011;19141;48.980;8.410;2023-04-25T07:03:38;4.88;;;2.72;;
32788;SDS011;19141;48.980;8.410;2023-04-25T07:06:08;5.45;;;3.10;;
32788;SDS011;19141;48.980;8.410;2023-04-25T07:08:33;5.95;;;2.95;;
32788;SDS011;19141;48.980;8.410;2023-04-25T07:10:59;8.75;;;3.13;;
32788;SDS011;19141;48.980;8.410;2023-04-25T07:13:25;5.22;;;3.35;;
32788;SDS011;19141;48.980;8.410;2023-04-25T07:15:50;5.45;;;3.38;;
32788;SDS011;19141;48.980;8.410;2023-04-25T07:18:18;6.22;;;3.67;;
32788;SDS011;19141;48.980;8.410;2023-04-25T07:20:43;4.95;;;3.22;;
32788;SDS011;19141;48.980;8.410;2023-04-25T07:23:10;7.90;;;3.85;;
32788;SDS011;19141;48.980;8.410;2023-04-25T07:25:35;5.50;;;3.17;;
32788;SDS011;19141;48.980;8.410;2023-04-25T07:28:01;7.65;;;3.45;;
32788;SDS011;19141;48.980;8.410;2023-04-25T07:30:26;5.25;;;3.38;;
32788;SDS011;19141;48.980;8.410;2023-04-25T07:32:53;5.43;;;3.45;;
32788;SDS011;19141;48.980;8.410;2023-04-25T07:35:19;4.53;;;3.13;;
32788;SDS011;19141;48.980;8.410;2023-04-25T07:37:44;6.65;;;4.03;;
32788;SDS011;19141;48.980;8.410;2023-04-25T07:40:13;6.50;;;3.30;;
32788;SDS011;19141;48.980;8.410;2023-04-25T07:42:45;5.38;;;3.50;;
32788;SDS011;19141;48.980;8.410;2023-04-25T07:45:12;6.25;;;3.35;;
32788;SDS011;19141;48.980;8.410;2023-04-25T07:47:39;6.75;;;3.78;;
32788;SDS011;19141;48.980;8.410;2023-04-25T07:50:06;6.10;;;3.65;;
32788;SDS011;19141;48.980;8.410;2023-04-25T07:52:32;6.07;;;3.55;;
32788;SDS011;19141;48.980;8.410;2023-04-25T07:55:16;4.88;;;3.25;;
32788;SDS011;19141;48.980;8.410;2023-04-25T07:57:58;7.43;;;3.50;;
32788;SDS011;19141;48.980;8.410;2023-04-25T08:00:28;4.68;;;2.92;;
32788;SDS011;19141;48.980;8.410;2023-04-25T08:03:09;7.15;;;3.70;;
32788;SDS011;19141;48.980;8.410;2023-04-25T08:05:35;5.25;;;3.05;;
32788;SDS011;19141;48.980;8.410;2023-04-25T08:08:03;4.70;;;3.65;;
32788;SDS011;19141;48.980;8.410;2023-04-25T08:12:57;6.68;;;3.80;;
32788;SDS011;19141;48.980;8.410;2023-04-25T08:15:23;7.28;;;3.88;;
32788;SDS011;19141;48.980;8.410;2023-04-25T08:17:48;6.72;;;4.15;;
32788;SDS011;19141;48.980;8.410;2023-04-25T08:20:14;6.15;;;3.88;;
32788;SDS011;19141;48.980;8.410;2023-04-25T08:22:40;6.70;;;4.22;;
32788;SDS011;19141;48.980;8.410;2023-04-25T08:25:25;7.72;;;4.50;;
32788;SDS011;19141;48.980;8.410;2023-04-25T08:27:51;8.20;;;4.38;;
32788;SDS011;19141;48.980;8.410;2023-04-25T08:30:19;9.75;;;5.03;;
32788;SDS011;19141;48.980;8.410;2023-04-25T08:32:45;9.05;;;5.05;;
32788;SDS011;19141;48.980;8.410;2023-04-25T08:35:44;8.63;;;5.25;;
32788;SDS011;19141;48.980;8.410;2023-04-25T08:38:10;7.15;;;4.28;;
32788;SDS011;19141;48.980;8.410;2023-04-25T08:40:37;9.20;;;5.22;;
32788;SDS011;19141;48.980;8.410;2023-04-25T08:43:09;7.45;;;5.22;;
32788;SDS011;19141;48.980;8.410;2023-04-25T08:45:40;10.52;;;4.75;;
32788;SDS011;19141;48.980;8.410;2023-04-25T08:48:13;9.38;;;5.78;;
32788;SDS011;19141;48.980;8.410;2023-04-25T08:53:11;8.20;;;4.78;;
32788;SDS011;19141;48.980;8.410;2023-04-25T08:55:41;11.55;;;5.88;;
32788;SDS011;19141;48.980;8.410;2023-04-25T08:58:09;9.45;;;5.45;;
32788;SDS011;19141;48.980;8.410;2023-04-25T09:00:36;7.90;;;5.18;;
32788;SDS011;19141;48.980;8.410;2023-04-25T09:03:02;9.40;;;5.00;;
32788;SDS011;19141;48.980;8.410;2023-04-25T09:05:34;8.98;;;5.55;;
32788;SDS011;19141;48.980;8.410;2023-04-25T09:08:01;8.18;;;5.15;;
32788;SDS011;19141;48.980;8.410;2023-04-25T09:10:27;10.95;;;5.35;;
32788;SDS011;19141;48.980;8.410;2023-04-25T09:13:28;9.32;;;5.68;;
32788;SDS011;19141;48.980;8.410;2023-04-25T09:16:14;10.48;;;5.72;;
32788;SDS011;19141;48.980;8.410;2023-04-25T09:19:10;9.77;;;5.15;;
32788;SDS011;19141;48.980;8.410;2023-04-25T09:21:48;10.00;;;6.13;;
32788;SDS011;19141;48.980;8.410;2023-04-25T09:24:14;11.45;;;5.63;;
32788;SDS011;19141;48.980;8.410;2023-04-25T09:26:40;9.20;;;5.57;;
32788;SDS011;19141;48.980;8.410;2023-04-25T09:29:06;12.35;;;5.75;;
32788;SDS011;19141;48.980;8.410;2023-04-25T09:31:33;13.95;;;6.30;;
32788;SDS011;19141;48.980;8.410;2023-04-25T09:34:02;12.23;;;6.13;;
32788;SDS011;19141;48.980;8.410;2023-04-25T09:36:35;10.38;;;5.28;;
32788;SDS011;19141;48.980;8.410;2023-04-25T09:39:29;9.27;;;5.15;;
32788;SDS011;19141;48.980;8.410;2023-04-25T09:42:05;10.48;;;5.05;;
32788;SDS011;19141;48.980;8.410;2023-04-25T09:44:31;10.38;;;6.15;;
32788;SDS011;19141;48.980;8.410;2023-04-25T09:46:57;13.40;;;6.95;;
32788;SDS011;19141;48.980;8.410;2023-04-25T09:49:25;12.93;;;5.53;;
32788;SDS011;19141;48.980;8.410;2023-04-25T09:52:08;10.48;;;5.57;;
32788;SDS011;19141;48.980;8.410;2023-04-25T09:54:56;9.65;;;4.70;;
32788;SDS011;19141;48.980;8.410;2023-04-25T09:57:29;6.47;;;4.25;;
32788;SDS011;19141;48.980;8.410;2023-04-25T09:59:56;5.78;;;3.75;;
32788;SDS011;19141;48.980;8.410;2023-04-25T10:02:24;7.60;;;4.00;;
32788;SDS011;19141;48.980;8.410;2023-04-25T10:04:54;6.82;;;4.10;;
32788;SDS011;19141;48.980;8.410;2023-04-25T10:07:25;7.10;;;3.80;;
32788;SDS011;19141;48.980;8.410;2023-04-25T10:10:01;6.32;;;3.60;;
32788;SDS011;19141;48.980;8.410;2023-04-25T10:12:28;7.10;;;4.20;;
32788;SDS011;19141;48.980;8.410;2023-04-25T10:14:54;6.47;;;3.63;;
32788;SDS011;19141;48.980;8.410;2023-04-25T10:17:20;9.13;;;4.25;;
32788;SDS011;19141;48.980;8.410;2023-04-25T10:19:47;8.63;;;4.20;;
32788;SDS011;19141;48.980;8.410;2023-04-25T10:22:34;7.50;;;4.63;;
32788;SDS011;19141;48.980;8.410;2023-04-25T10:25:01;7.75;;;4.53;;
32788;SDS011;19141;48.980;8.410;2023-04-25T10:30:01;8.38;;;4.68;;
32788;SDS011;19141;48.980;8.410;2023-04-25T10:32:30;9.57;;;4.82;;
32788;SDS011;19141;48.980;8.410;2023-04-25T10:34:56;7.82;;;5.18;;
32788;SDS011;19141;48.980;8.410;2023-04-25T10:37:22;10.68;;;5.78;;
32788;SDS011;19141;48.980;8.410;2023-04-25T10:39:49;12.98;;;5.80;;
32788;SDS011;19141;48.980;8.410;2023-04-25T10:42:14;11.32;;;5.10;;
32788;SDS011;19141;48.980;8.410;2023-04-25T10:44:40;11.48;;;5.63;;
32788;SDS011;19141;48.980;8.410;2023-04-25T10:47:06;9.05;;;4.65;;
32788;SDS011;19141;48.980;8.410;2023-04-25T10:49:33;8.65;;;4.38;;
32788;SDS011;19141;48.980;8.410;2023-04-25T10:54:57;7.22;;;3.90;;
32788;SDS011;19141;48.980;8.410;2023-04-25T10:57:27;9.85;;;4.22;;
32788;SDS011;19141;48.980;8.410;2023-04-25T11:00:05;9.90;;;4.28;;
32788;SDS011;19141;48.980;8.410;2023-04-25T11:02:47;12.25;;;5.47;;
32788;SDS011;19141;48.980;8.410;2023-04-25T11:07:53;10.52;;;6.05;;
32788;SDS011;19141;48.980;8.410;2023-04-25T11:10:24;12.60;;;6.10;;
32788;SDS011;19141;48.980;8.410;2023-04-25T11:12:56;9.32;;;6.03;;
32788;SDS011;19141;48.980;8.410;2023-04-25T11:15:22;10.95;;;5.82;;
32788;SDS011;19141;48.980;8.410;2023-04-25T11:17:50;11.82;;;6.20;;
32788;SDS011;19141;48.980;8.410;2023-04-25T11:20:17;10.52;;;5.47;;
32788;SDS011;19141;48.980;8.410;2023-04-25T11:22:44;11.25;;;6.10;;
32788;SDS011;19141;48.980;8.410;2023-04-25T11:27:37;13.52;;;5.50;;
32788;SDS011;19141;48.980;8.410;2023-04-25T11:30:12;11.32;;;6.32;;
32788;SDS011;19141;48.980;8.410;2023-04-25T11:32:40;11.65;;;5.72;;
32788;SDS011;19141;48.980;8.410;2023-04-25T11:35:06;15.13;;;6.75;;
32788;SDS011;19141;48.980;8.410;2023-04-25T11:37:32;10.63;;;6.43;;
32788;SDS011;19141;48.980;8.410;2023-04-25T11:39:59;11.65;;;6.03;;
32788;SDS011;19141;48.980;8.410;2023-04-25T11:42:25;12.07;;;5.95;;
32788;SDS011;19141;48.980;8.410;2023-04-25T11:44:51;11.20;;;5.75;;
32788;SDS011;19141;48.980;8.410;2023-04-25T11:47:16;12.07;;;5.32;;
32788;SDS011;19141;48.980;8.410;2023-04-25T11:49:42;11.38;;;6.00;;
32788;SDS011;19141;48.980;8.410;2023-04-25T11:52:07;11.43;;;5.82;;
32788;SDS011;19141;48.980;8.410;2023-04-25T11:54:36;11.45;;;5.85;;
32788;SDS011;19141;48.980;8.410;2023-04-25T11:57:03;11.10;;;6.10;;
32788;SDS011;19141;48.980;8.410;2023-04-25T11:59:29;11.10;;;5.95;;
32788;SDS011;19141;48.980;8.410;2023-04-25T12:01:55;11.15;;;5.88;;
32788;SDS011;19141;48.980;8.410;2023-04-25T12:04:23;12.02;;;5.93;;
32788;SDS011;19141;48.980;8.410;2023-04-25T12:06:52;12.77;;;6.13;;
32788;SDS011;19141;48.980;8.410;2023-04-25T12:09:19;12.05;;;5.70;;
32788;SDS011;19141;48.980;8.410;2023-04-25T12:14:22;11.25;;;6.07;;
32788;SDS011;19141;48.980;8.410;2023-04-25T12:16:49;10.98;;;5.57;;
32788;SDS011;19141;48.980;8.410;2023-04-25T12:19:16;11.65;;;5.65;;
32788;SDS011;19141;48.980;8.410;2023-04-25T12:21:43;8.60;;;4.88;;
32788;SDS011;19141;48.980;8.410;2023-04-25T12:24:16;8.87;;;4.97;;
32788;SDS011;19141;48.980;8.410;2023-04-25T12:26:47;17.00;;;6.10;;
32788;SDS011;19141;48.980;8.410;2023-04-25T12:29:22;9.88;;;5.30;;
32788;SDS011;19141;48.980;8.410;2023-04-25T12:31:49;10.68;;;6.25;;
32788;SDS011;19141;48.980;8.410;2023-04-25T12:34:16;12.65;;;5.90;;
32788;SDS011;19141;48.980;8.410;2023-04-25T12:36:42;11.20;;;6.88;;
32788;SDS011;19141;48.980;8.410;2023-04-25T12:39:08;13.05;;;6.35;;
32788;SDS011;19141;48.980;8.410;2023-04-25T12:41:40;15.07;;;7.90;;
32788;SDS011;19141;48.980;8.410;2023-04-25T12:44:06;12.10;;;6.13;;
32788;SDS011;19141;48.980;8.410;2023-04-25T12:46:32;10.50;;;6.05;;
32788;SDS011;19141;48.980;8.410;2023-04-25T12:48:57;10.50;;;6.00;;
32788;SDS011;19141;48.980;8.410;2023-04-25T12:51:22;12.55;;;6.68;;
32788;SDS011;19141;48.980;8.410;2023-04-25T12:53:50;13.10;;;6.82;;
32788;SDS011;19141;48.980;8.410;2023-04-25T12:56:16;12.50;;;6.15;;
32788;SDS011;19141;48.980;8.410;2023-04-25T12:58:41;10.50;;;4.82;;
32788;SDS011;19141;48.980;8.410;2023-04-25T13:01:09;11.70;;;5.70;;
32788;SDS011;19141;48.980;8.410;2023-04-25T13:03:34;9.80;;;5.13;;
32788;SDS011;19141;48.980;8.410;2023-04-25T13:06:00;9.40;;;5.32;;
32788;SDS011;19141;48.980;8.410;2023-04-25T13:08:25;9.45;;;5.32;;
32788;SDS011;19141;48.980;8.410;2023-04-25T13:10:51;10.48;;;5.10;;
32788;SDS011;19141;48.980;8.410;2023-04-25T13:13:16;10.05;;;4.70;;
32788;SDS011;19141;48.980;8.410;2023-04-25T13:15:42;7.68;;;4.30;;
32788;SDS011;19141;48.980;8.410;2023-04-25T13:18:08;9.10;;;5.15;;
32788;SDS011;19141;48.980;8.410;2023-04-25T13:20:33;9.95;;;5.25;;
32788;SDS011;19141;48.980;8.410;2023-04-25T13:22:59;11.30;;;4.72;;
32788;SDS011;19141;48.980;8.410;2023-04-25T13:25:24;8.98;;;4.75;;
32788;SDS011;19141;48.980;8.410;2023-04-25T13:27:50;6.15;;;4.40;;
32788;SDS011;19141;48.980;8.410;2023-04-25T13:30:15;10.10;;;4.07;;
32788;SDS011;19141;48.980;8.410;2023-04-25T13:32:41;7.60;;;4.07;;
32788;SDS011;19141;48.980;8.410;2023-04-25T13:35:07;5.80;;;3.25;;
32788;SDS011;19141;48.980;8.410;2023-04-25T13:40:00;5.95;;;3.08;;
32788;SDS011;19141;48.980;8.410;2023-04-25T13:42:30;8.05;;;3.70;;
32788;SDS011;19141;48.980;8.410;2023-04-25T13:44:56;7.55;;;3.80;;
32788;SDS011;19141;48.980;8.410;2023-04-25T13:47:22;5.28;;;3.10;;
32788;SDS011;19141;48.980;8.410;2023-04-25T13:49:48;8.77;;;4.43;;
32788;SDS011;19141;48.980;8.410;2023-04-25T13:52:14;3.65;;;2.45;;
32788;SDS011;19141;48.980;8.410;2023-04-25T13:54:40;5.45;;;3.03;;
32788;SDS011;19141;48.980;8.410;2023-04-25T13:57:05;5.88;;;3.65;;
32788;SDS011;19141;48.980;8.410;2023-04-25T13:59:31;3.35;;;2.50;;
32788;SDS011;19141;48.980;8.410;2023-04-25T14:01:57;3.42;;;2.08;;
32788;SDS011;19141;48.980;8.410;2023-04-25T14:04:23;3.65;;;1.65;;
32788;SDS011;19141;48.980;8.410;2023-04-25T14:06:48;2.67;;;1.58;;
32788;SDS011;19141;48.980;8.410;2023-04-25T14:09:14;3.33;;;2.03;;
32788;SDS011;19141;48.980;8.410;2023-04-25T14:11:40;2.65;;;2.03;;
32788;SDS011;19141;48.980;8.410;2023-04-25T14:14:05;3.55;;;2.58;;
32788;SDS011;19141;48.980;8.410;2023-04-25T14:16:31;7.05;;;2.97;;
32788;SDS011;19141;48.980;8.410;2023-04-25T14:18:59;3.90;;;2.75;;
32788;SDS011;19141;48.980;8.410;2023-04-25T14:21:25;2.65;;;2.10;;
32788;SDS011;19141;48.980;8.410;2023-04-25T14:23:52;3.63;;;2.20;;
32788;SDS011;19141;48.980;8.410;2023-04-25T14:26:17;4.50;;;2.10;;
32788;SDS011;19141;48.980;8.410;2023-04-25T14:28:43;5.55;;;2.97;;
32788;SDS011;19141;48.980;8.410;2023-04-25T14:31:08;4.45;;;2.60;;
32788;SDS011;19141;48.980;8.410;2023-04-25T14:33:34;5.35;;;2.97;;
32788;SDS011;19141;48.980;8.410;2023-04-25T14:35:59;3.75;;;2.58;;
32788;SDS011;19141;48.980;8.410;2023-04-25T14:38:25;7.18;;;3.92;;
32788;SDS011;19141;48.980;8.410;2023-04-25T14:40:51;4.85;;;2.83;;
32788;SDS011;19141;48.980;8.410;2023-04-25T14:43:16;6.85;;;2.88;;
32788;SDS011;19141;48.980;8.410;2023-04-25T14:45:42;4.10;;;2.60;;
32788;SDS011;19141;48.980;8.410;2023-04-25T14:48:07;5.93;;;2.53;;
32788;SDS011;19141;48.980;8.410;2023-04-25T14:50:33;5.40;;;2.80;;
32788;SDS011;19141;48.980;8.410;2023-04-25T14:52:58;5.75;;;2.58;;
32788;SDS011;19141;48.980;8.410;2023-04-25T14:55:26;5.43;;;3.10;;
32788;SDS011;19141;48.980;8.410;2023-04-25T14:57:52;3.30;;;2.45;;
32788;SDS011;19141;48.980;8.410;2023-04-25T15:00:18;3.77;;;2.17;;
32788;SDS011;19141;48.980;8.410;2023-04-25T15:02:45;5.60;;;2.13;;
32788;SDS011;19141;48.980;8.410;2023-04-25T15:05:12;3.25;;;2.35;;
32788;SDS011;19141;48.980;8.410;2023-04-25T15:07:38;2.72;;;1.98;;
32788;SDS011;19141;48.980;8.410;2023-04-25T15:10:07;3.47;;;2.13;;
32788;SDS011;19141;48.980;8.410;2023-04-25T15:12:38;3.17;;;2.10;;
32788;SDS011;19141;48.980;8.410;2023-04-25T15:15:05;4.10;;;1.63;;
32788;SDS011;19141;48.980;8.410;2023-04-25T15:17:36;4.55;;;2.78;;
32788;SDS011;19141;48.980;8.410;2023-04-25T15:20:08;3.30;;;2.10;;
32788;SDS011;19141;48.980;8.410;2023-04-25T15:22:36;3.90;;;2.00;;
32788;SDS011;19141;48.980;8.410;2023-04-25T15:25:02;4.38;;;2.30;;
32788;SDS011;19141;48.980;8.410;2023-04-25T15:27:28;2.60;;;2.30;;
32788;SDS011;19141;48.980;8.410;2023-04-25T15:29:54;4.72;;;2.22;;
32788;SDS011;19141;48.980;8.410;2023-04-25T15:32:19;3.38;;;2.20;;
32788;SDS011;19141;48.980;8.410;2023-04-25T15:34:45;3.75;;;2.30;;
32788;SDS011;19141;48.980;8.410;2023-04-25T15:37:11;3.13;;;2.40;;
32788;SDS011;19141;48.980;8.410;2023-04-25T15:39:36;4.30;;;2.42;;
32788;SDS011;19141;48.980;8.410;2023-04-25T15:42:02;2.25;;;1.67;;
32788;SDS011;19141;48.980;8.410;2023-04-25T15:44:28;2.63;;;1.88;;
32788;SDS011;19141;48.980;8.410;2023-04-25T15:46:53;2.53;;;1.83;;
32788;SDS011;19141;48.980;8.410;2023-04-25T15:49:18;5.30;;;2.10;;
32788;SDS011;19141;48.980;8.410;2023-04-25T15:51:46;3.40;;;2.25;;
32788;SDS011;19141;48.980;8.410;2023-04-25T15:54:12;4.35;;;2.10;;
32788;SDS011;19141;48.980;8.410;2023-04-25T15:56:37;4.57;;;2.22;;
32788;SDS011;19141;48.980;8.410;2023-04-25T15:59:03;2.55;;;1.88;;
32788;SDS011;19141;48.980;8.410;2023-04-25T16:01:28;2.42;;;1.75;;
32788;SDS011;19141;48.980;8.410;2023-04-25T16:03:55;3.30;;;1.88;;
32788;SDS011;19141;48.980;8.410;2023-04-25T16:06:25;3.70;;;1.88;;
32788;SDS011;19141;48.980;8.410;2023-04-25T16:08:51;3.20;;;2.23;;
32788;SDS011;19141;48.980;8.410;2023-04-25T16:11:17;2.65;;;2.08;;
32788;SDS011;19141;48.980;8.410;2023-04-25T16:13:43;4.78;;;2.22;;
32788;SDS011;19141;48.980;8.410;2023-04-25T16:16:09;3.22;;;2.22;;
32788;SDS011;19141;48.980;8.410;2023-04-25T16:18:34;5.18;;;2.08;;
32788;SDS011;19141;48.980;8.410;2023-04-25T16:21:00;3.80;;;1.80;;
32788;SDS011;19141;48.980;8.410;2023-04-25T16:23:25;4.53;;;2.58;;
32788;SDS011;19141;48.980;8.410;2023-04-25T16:25:51;2.65;;;1.83;;
32788;SDS011;19141;48.980;8.410;2023-04-25T16:28:16;3.63;;;2.40;;
32788;SDS011;19141;48.980;8.410;2023-04-25T16:30:42;4.47;;;2.25;;
32788;SDS011;19141;48.980;8.410;2023-04-25T16:33:07;6.35;;;3.08;;
32788;SDS011;19141;48.980;8.410;2023-04-25T16:35:33;3.78;;;2.50;;
32788;SDS011;19141;48.980;8.410;2023-04-25T16:37:58;3.67;;;2.58;;
32788;SDS011;19141;48.980;8.410;2023-04-25T16:40:25;5.65;;;2.50;;
32788;SDS011;19141;48.980;8.410;2023-04-25T16:42:51;3.38;;;2.35;;
32788;SDS011;19141;48.980;8.410;2023-04-25T16:45:16;4.30;;;3.05;;
32788;SDS011;19141;48.980;8.410;2023-04-25T16:47:44;6.32;;;3.20;;
32788;SDS011;19141;48.980;8.410;2023-04-25T16:50:11;6.07;;;3.53;;
32788;SDS011;19141;48.980;8.410;2023-04-25T16:52:37;6.55;;;3.08;;
32788;SDS011;19141;48.980;8.410;2023-04-25T16:55:03;4.63;;;2.90;;
32788;SDS011;19141;48.980;8.410;2023-04-25T16:57:29;4.72;;;2.95;;
32788;SDS011;19141;48.980;8.410;2023-04-25T16:59:54;8.48;;;3.88;;
32788;SDS011;19141;48.980;8.410;2023-04-25T17:02:20;3.30;;;2.70;;
32788;SDS011;19141;48.980;8.410;2023-04-25T17:04:46;4.68;;;2.83;;
32788;SDS011;19141;48.980;8.410;2023-04-25T17:07:11;3.40;;;2.72;;
32788;SDS011;19141;48.980;8.410;2023-04-25T17:09:36;7.53;;;3.58;;
32788;SDS011;19141;48.980;8.410;2023-04-25T17:12:03;4.53;;;3.15;;
32788;SDS011;19141;48.980;8.410;2023-04-25T17:14:29;4.47;;;2.85;;
32788;SDS011;19141;48.980;8.410;2023-04-25T17:16:56;3.88;;;2.88;;
32788;SDS011;19141;48.980;8.410;2023-04-25T17:19:21;6.78;;;2.38;;
32788;SDS011;19141;48.980;8.410;2023-04-25T17:21:47;3.63;;;2.47;;
32788;SDS011;19141;48.980;8.410;2023-04-25T17:24:12;4.88;;;2.60;;
32788;SDS011;19141;48.980;8.410;2023-04-25T17:26:39;7.63;;;3.85;;
32788;SDS011;19141;48.980;8.410;2023-04-25T17:29:05;8.65;;;3.53;;
32788;SDS011;19141;48.980;8.410;2023-04-25T17:31:30;4.50;;;2.72;;
32788;SDS011;19141;48.980;8.410;2023-04-25T17:33:56;6.60;;;3.55;;
32788;SDS011;19141;48.980;8.410;2023-04-25T17:36:21;5.85;;;4.00;;
32788;SDS011;19141;48.980;8.410;2023-04-25T17:38:47;5.15;;;3.63;;
32788;SDS011;19141;48.980;8.410;2023-04-25T17:41:13;3.88;;;3.22;;
32788;SDS011;19141;48.980;8.410;2023-04-25T17:43:39;5.40;;;3.33;;
32788;SDS011;19141;48.980;8.410;2023-04-25T17:46:05;4.95;;;3.10;;
32788;SDS011;19141;48.980;8.410;2023-04-25T17:48:30;5.97;;;3.03;;
32788;SDS011;19141;48.980;8.410;2023-04-25T17:50:56;5.43;;;2.80;;
32788;SDS011;19141;48.980;8.410;2023-04-25T17:53:22;6.30;;;3.38;;
32788;SDS011;19141;48.980;8.410;2023-04-25T17:55:48;3.90;;;2.83;;
32788;SDS011;19141;48.980;8.410;2023-04-25T17:58:14;6.53;;;3.53;;
32788;SDS011;19141;48.980;8.410;2023-04-25T18:00:40;5.50;;;3.30;;
32788;SDS011;19141;48.980;8.410;2023-04-25T18:03:06;4.68;;;3.38;;
32788;SDS011;19141;48.980;8.410;2023-04-25T18:05:32;4.88;;;3.15;;
32788;SDS011;19141;48.980;8.410;2023-04-25T18:07:57;6.88;;;3.35;;
32788;SDS011;19141;48.980;8.410;2023-04-25T18:10:23;8.18;;;3.70;;
32788;SDS011;19141;48.980;8.410;2023-04-25T18:12:48;5.70;;;2.88;;
32788;SDS011;19141;48.980;8.410;2023-04-25T18:15:17;4.53;;;3.30;;
32788;SDS011;19141;48.980;8.410;2023-04-25T18:17:43;5.32;;;3.33;;
32788;SDS011;19141;48.980;8.410;2023-04-25T18:20:09;4.15;;;3.20;;
32788;SDS011;19141;48.980;8.410;2023-04-25T18:22:39;5.55;;;3.63;;
32788;SDS011;19141;48.980;8.410;2023-04-25T18:25:04;6.05;;;3.22;;
32788;SDS011;19141;48.980;8.410;2023-04-25T18:27:32;5.05;;;3.58;;
32788;SDS011;19141;48.980;8.410;2023-04-25T18:29:57;7.30;;;4.07;;
32788;SDS011;19141;48.980;8.410;2023-04-25T18:32:23;13.63;;;6.85;;
32788;SDS011;19141;48.980;8.410;2023-04-25T18:34:49;7.90;;;4.38;;
32788;SDS011;19141;48.980;8.410;2023-04-25T18:37:15;7.25;;;4.93;;
32788;SDS011;19141;48.980;8.410;2023-04-25T18:39:41;12.27;;;7.35;;
32788;SDS011;19141;48.980;8.410;2023-04-25T18:42:06;14.40;;;7.95;;
32788;SDS011;19141;48.980;8.410;2023-04-25T18:44:33;13.20;;;7.10;;
32788;SDS011;19141;48.980;8.410;2023-04-25T18:47:03;9.90;;;4.93;;
32788;SDS011;19141;48.980;8.410;2023-04-25T18:49:29;9.07;;;4.45;;
32788;SDS011;19141;48.980;8.410;2023-04-25T18:51:55;7.50;;;4.57;;
32788;SDS011;19141;48.980;8.410;2023-04-25T18:54:21;5.07;;;3.00;;
32788;SDS011;19141;48.980;8.410;2023-04-25T18:56:47;5.85;;;3.35;;
32788;SDS011;19141;48.980;8.410;2023-04-25T18:59:12;4.68;;;3.42;;
32788;SDS011;19141;48.980;8.410;2023-04-25T19:01:39;6.90;;;4.13;;
32788;SDS011;19141;48.980;8.410;2023-04-25T19:04:05;10.05;;;4.55;;
32788;SDS011;19141;48.980;8.410;2023-04-25T19:06:31;8.57;;;4.18;;
32788;SDS011;19141;48.980;8.410;2023-04-25T19:08:56;7.45;;;4.15;;
32788;SDS011;19141;48.980;8.410;2023-04-25T19:11:22;4.45;;;3.53;;
32788;SDS011;19141;48.980;8.410;2023-04-25T19:13:48;5.03;;;3.33;;
32788;SDS011;19141;48.980;8.410;2023-04-25T19:16:14;9.35;;;3.70;;
32788;SDS011;19141;48.980;8.410;2023-04-25T19:18:41;4.93;;;3.95;;
32788;SDS011;19141;48.980;8.410;2023-04-25T19:21:07;7.30;;;3.47;;
32788;SDS011;19141;48.980;8.410;2023-04-25T19:23:32;4.57;;;3.38;;
32788;SDS011;19141;48.980;8.410;2023-04-25T19:25:58;8.10;;;4.13;;
32788;SDS011;19141;48.980;8.410;2023-04-25T19:28:24;5.75;;;3.85;;
32788;SDS011;19141;48.980;8.410;2023-04-25T19:30:50;5.97;;;4.25;;
32788;SDS011;19141;48.980;8.410;2023-04-25T19:33:16;8.88;;;4.50;;
32788;SDS011;19141;48.980;8.410;2023-04-25T19:35:42;7.25;;;4.03;;
32788;SDS011;19141;48.980;8.410;2023-04-25T19:38:08;6.68;;;3.78;;
32788;SDS011;19141;48.980;8.410;2023-04-25T19:40:33;5.90;;;3.90;;